createdAt,value
2023-01-12T00:02:16.661Z,98306.72
2023-01-12T00:04:45.509Z,98314.69
2023-01-12T00:07:16.168Z,98310.72
2023-01-12T00:09:44.419Z,98320.28
2023-01-12T00:12:13.613Z,98322.88
2023-01-12T00:14:41.854Z,98321.38
2023-01-12T00:17:12.173Z,98332.88
2023-01-12T00:19:40.444Z,98332.88
2023-01-12T00:22:12.192Z,98334.56
2023-01-12T00:24:41.832Z,98338.75
2023-01-12T00:27:12.667Z,98343.06
2023-01-12T00:29:40.909Z,98342.56
2023-01-12T00:32:15.105Z,98341.09
2023-01-12T00:34:43.279Z,98346.47
2023-01-12T00:37:11.657Z,98345.41
2023-01-12T00:39:42.958Z,98342.34
2023-01-12T00:42:31.786Z,98345.78
2023-01-12T00:45:17.560Z,98349.06
2023-01-12T00:47:47.050Z,98354.59
2023-01-12T00:50:17.871Z,98359.44
2023-01-12T00:52:47.326Z,98355.94
2023-01-12T00:55:15.443Z,98358.56
2023-01-12T00:57:43.808Z,98358.88
2023-01-12T01:00:13.151Z,98360.88
2023-01-12T01:02:41.320Z,98355.59
2023-01-12T01:05:11.241Z,98355.81
2023-01-12T01:07:39.382Z,98362.63
2023-01-12T01:10:08.298Z,98373.00
2023-01-12T01:12:36.390Z,98363.59
2023-01-12T01:15:05.099Z,98369.59
2023-01-12T01:17:33.376Z,98361.75
2023-01-12T01:20:01.670Z,98357.78
2023-01-12T01:22:31.194Z,98362.72
2023-01-12T01:24:59.291Z,98365.53
2023-01-12T01:27:27.321Z,98372.59
2023-01-12T01:29:55.598Z,98365.47
2023-01-12T01:32:23.715Z,98369.78
2023-01-12T01:34:51.754Z,98370.66
2023-01-12T01:37:21.899Z,98370.22
2023-01-12T01:39:51.464Z,98367.59
2023-01-12T01:42:28.899Z,98368.81
2023-01-12T01:44:59.426Z,98360.53
2023-01-12T01:47:37.544Z,98368.50
2023-01-12T01:50:15.945Z,98366.84
2023-01-12T01:52:48.071Z,98364.28
2023-01-12T01:55:23.604Z,98363.19
2023-01-12T01:57:55.860Z,98360.88
2023-01-12T02:00:25.817Z,98360.88
2023-01-12T02:02:55.874Z,98364.78
2023-01-12T02:05:27.661Z,98364.28
2023-01-12T02:08:00.999Z,98370.00
2023-01-12T02:10:30.529Z,98368.63
2023-01-12T02:13:15.860Z,98358.16
2023-01-12T02:16:20.024Z,98360.53
2023-01-12T02:18:58.995Z,98363.13
2023-01-12T02:21:54.289Z,98364.53
2023-01-12T02:24:59.867Z,98362.06
2023-01-12T02:28:07.011Z,98366.41
2023-01-12T02:31:16.729Z,98372.88
2023-01-12T02:33:59.255Z,98371.91
2023-01-12T02:36:35.579Z,98378.66
2023-01-12T02:39:12.941Z,98381.00
2023-01-12T02:42:07.128Z,98385.75
2023-01-12T02:44:40.857Z,98393.47
2023-01-12T02:47:17.254Z,98396.81
2023-01-12T02:49:52.530Z,98391.44
2023-01-12T02:52:25.443Z,98377.75
2023-01-12T02:54:55.315Z,98377.06
2023-01-12T02:57:26.617Z,98382.66
2023-01-12T02:59:56.576Z,98378.69
2023-01-12T03:02:27.742Z,98399.16
2023-01-12T03:04:57.335Z,98394.81
2023-01-12T03:07:42.101Z,98390.31
2023-01-12T03:10:20.037Z,98393.13
2023-01-12T03:12:52.293Z,98396.53
2023-01-12T03:15:21.033Z,98392.13
2023-01-12T03:17:57.134Z,98390.94
2023-01-12T03:20:29.736Z,98387.34
2023-01-12T03:23:03.538Z,98378.53
2023-01-12T03:25:34.975Z,98377.16
2023-01-12T03:28:07.612Z,98379.25
2023-01-12T03:30:39.863Z,98379.50
2023-01-12T03:33:08.782Z,98381.09
2023-01-12T03:35:44.876Z,98384.53
2023-01-12T03:38:20.469Z,98393.63
2023-01-12T03:40:57.894Z,98399.66
2023-01-12T03:43:32.030Z,98393.41
2023-01-12T03:46:05.920Z,98398.75
2023-01-12T03:48:41.433Z,98401.34
2023-01-12T03:51:16.309Z,98387.81
2023-01-12T03:53:47.070Z,98397.56
2023-01-12T03:56:17.381Z,98399.63
2023-01-12T03:58:46.447Z,98397.34
2023-01-12T04:01:15.076Z,98396.69
2023-01-12T04:03:43.190Z,98398.63
2023-01-12T04:06:12.797Z,98413.44
2023-01-12T04:08:40.994Z,98410.56
2023-01-12T04:11:23.614Z,98408.97
2023-01-12T04:13:51.873Z,98402.44
2023-01-12T04:16:20.137Z,98414.91
2023-01-12T04:18:48.299Z,98409.88
2023-01-12T04:21:35.135Z,98411.81
2023-01-12T04:24:03.304Z,98404.22
2023-01-12T04:26:31.479Z,98414.78
2023-01-12T04:28:59.549Z,98415.78
2023-01-12T04:31:27.616Z,98407.47
2023-01-12T04:33:55.684Z,98402.44
2023-01-12T04:36:25.240Z,98396.66
2023-01-12T04:38:53.273Z,98401.97
2023-01-12T04:41:21.368Z,98404.16
2023-01-12T04:43:49.395Z,98417.56
2023-01-12T04:46:17.594Z,98404.03
2023-01-12T04:48:45.743Z,98401.53
2023-01-12T04:51:14.335Z,98406.31
2023-01-12T04:53:43.851Z,98403.69
2023-01-12T04:56:11.969Z,98416.38
2023-01-12T04:58:40.017Z,98414.97
2023-01-12T05:01:12.043Z,98406.47
2023-01-12T05:03:40.280Z,98407.84
2023-01-12T05:06:09.087Z,98404.19
2023-01-12T05:08:55.062Z,98409.81
2023-01-12T05:11:28.552Z,98407.84
2023-01-12T05:13:57.622Z,98416.69
2023-01-12T05:16:26.455Z,98415.41
2023-01-12T05:18:54.820Z,98411.13
2023-01-12T05:21:23.994Z,98408.41
2023-01-12T05:23:53.981Z,98410.63
2023-01-12T05:26:22.582Z,98421.38
2023-01-12T05:28:52.340Z,98415.03
2023-01-12T05:31:21.027Z,98420.03
2023-01-12T05:33:49.491Z,98404.59
2023-01-12T05:36:18.458Z,98408.09
2023-01-12T05:38:46.633Z,98407.19
2023-01-12T05:41:14.951Z,98409.03
2023-01-12T05:43:52.227Z,98412.53
2023-01-12T05:46:23.796Z,98415.22
2023-01-12T05:48:52.866Z,98417.31
2023-01-12T05:51:21.471Z,98409.47
2023-01-12T05:53:50.014Z,98416.19
2023-01-12T05:56:20.516Z,98419.72
2023-01-12T05:58:52.805Z,98411.22
2023-01-12T06:01:22.964Z,98411.47
2023-01-12T06:03:52.170Z,98418.53
2023-01-12T06:06:22.070Z,98417.22
2023-01-12T06:08:52.679Z,98420.44
2023-01-12T06:11:39.123Z,98422.19
2023-01-12T06:14:07.663Z,98423.44
2023-01-12T06:16:38.889Z,98424.28
2023-01-12T06:19:07.811Z,98422.28
2023-01-12T06:21:36.084Z,98424.88
2023-01-12T06:24:04.289Z,98434.72
2023-01-12T06:26:32.369Z,98428.50
2023-01-12T06:29:01.286Z,98436.81
2023-01-12T06:31:29.451Z,98437.84
2023-01-12T06:33:59.060Z,98438.84
2023-01-12T06:36:27.206Z,98444.66
2023-01-12T06:38:55.387Z,98443.41
2023-01-12T06:41:41.186Z,98456.78
2023-01-12T06:44:09.260Z,98451.31
2023-01-12T06:46:37.410Z,98456.56
2023-01-12T06:49:07.124Z,98461.59
2023-01-12T06:51:35.207Z,98463.66
2023-01-12T06:54:03.380Z,98469.31
2023-01-12T06:56:31.705Z,98485.53
2023-01-12T06:58:59.841Z,98484.09
2023-01-12T07:01:27.968Z,98487.13
2023-01-12T07:03:56.141Z,98479.00
2023-01-12T07:06:25.730Z,98493.16
2023-01-12T07:08:53.912Z,98494.59
2023-01-12T07:11:22.048Z,98490.03
2023-01-12T07:13:50.140Z,98492.09
2023-01-12T07:16:18.428Z,98492.28
2023-01-12T07:18:48.252Z,98478.88
2023-01-12T07:21:16.976Z,98482.28
2023-01-12T07:23:46.499Z,98487.41
2023-01-12T07:26:15.018Z,98496.16
2023-01-12T07:28:43.143Z,98488.94
2023-01-12T07:31:11.389Z,98501.94
2023-01-12T07:33:40.157Z,98499.59
2023-01-12T07:36:12.709Z,98499.91
2023-01-12T07:38:42.638Z,98501.34
2023-01-12T07:41:32.265Z,98502.81
2023-01-12T07:44:09.796Z,98503.50
2023-01-12T07:46:38.306Z,98501.91
2023-01-12T07:49:06.489Z,98503.75
2023-01-12T07:51:35.042Z,98507.06
2023-01-12T07:54:07.477Z,98509.09
2023-01-12T07:56:36.952Z,98500.19
2023-01-12T07:59:05.055Z,98502.56
2023-01-12T08:01:36.050Z,98506.69
2023-01-12T08:04:04.352Z,98496.94
2023-01-12T08:06:32.623Z,98509.53
2023-01-12T08:09:00.879Z,98509.88
2023-01-12T08:11:29.055Z,98516.31
2023-01-12T08:13:59.661Z,98514.28
2023-01-12T08:16:33.650Z,98510.97
2023-01-12T08:19:04.341Z,98518.31
2023-01-12T08:21:39.769Z,98510.97
2023-01-12T08:24:09.667Z,98506.34
2023-01-12T08:26:42.204Z,98508.75
2023-01-12T08:29:15.031Z,98506.88
2023-01-12T08:31:43.866Z,98500.91
2023-01-12T08:34:12.435Z,98512.63
2023-01-12T08:36:44.202Z,98519.13
2023-01-12T08:39:12.993Z,98520.63
2023-01-12T08:41:42.445Z,98517.88
2023-01-12T08:44:12.277Z,98515.59
2023-01-12T08:46:48.123Z,98511.91
2023-01-12T08:49:18.256Z,98517.47
2023-01-12T08:51:46.882Z,98514.19
2023-01-12T08:54:17.057Z,98522.28
2023-01-12T08:56:45.435Z,98523.88
2023-01-12T08:59:14.941Z,98525.59
2023-01-12T09:01:43.462Z,98520.28
2023-01-12T09:04:12.208Z,98519.38
2023-01-12T09:06:42.689Z,98513.91
2023-01-12T09:09:13.230Z,98513.53
2023-01-12T09:11:43.072Z,98512.63
2023-01-12T09:14:12.727Z,98516.94
2023-01-12T09:16:42.745Z,98519.88
2023-01-12T09:19:11.292Z,98516.56
2023-01-12T09:21:41.556Z,98517.69
2023-01-12T09:24:10.875Z,98516.63
2023-01-12T09:26:40.639Z,98508.78
2023-01-12T09:29:09.743Z,98509.66
2023-01-12T09:31:39.145Z,98499.59
2023-01-12T09:34:08.879Z,98498.25
2023-01-12T09:36:38.565Z,98507.47
2023-01-12T09:39:10.169Z,98488.97
2023-01-12T09:42:02.522Z,98481.69
2023-01-12T09:44:52.095Z,98483.81
2023-01-12T09:47:27.221Z,98478.00
2023-01-12T09:50:10.658Z,98476.53
2023-01-12T09:52:42.713Z,98470.63
2023-01-12T09:55:16.511Z,98470.31
2023-01-12T09:58:16.518Z,98458.19
2023-01-12T10:00:44.671Z,98454.34
2023-01-12T10:03:17.482Z,98454.22
2023-01-12T10:05:50.398Z,98451.16
2023-01-12T10:08:24.143Z,98452.75
2023-01-12T10:11:03.199Z,98452.88
2023-01-12T10:13:48.885Z,98453.44
2023-01-12T10:16:22.525Z,98444.69
2023-01-12T10:18:55.735Z,98442.66
2023-01-12T10:21:27.405Z,98441.72
2023-01-12T10:23:56.220Z,98454.69
2023-01-12T10:26:26.676Z,98445.81
2023-01-12T10:28:56.369Z,98444.44
2023-01-12T10:31:27.238Z,98436.47
2023-01-12T10:34:13.478Z,98444.19
2023-01-12T10:36:47.110Z,98432.25
2023-01-12T10:39:38.719Z,98436.06
2023-01-12T10:42:32.099Z,98435.19
2023-01-12T10:45:13.952Z,98429.78
2023-01-12T10:47:42.561Z,98441.44
2023-01-12T10:50:29.432Z,98433.44
2023-01-12T10:53:03.447Z,98436.06
2023-01-12T10:55:34.505Z,98421.53
2023-01-12T10:58:03.061Z,98422.91
2023-01-12T11:00:31.774Z,98427.22
2023-01-12T11:03:00.115Z,98418.66
2023-01-12T11:05:37.538Z,98415.91
2023-01-12T11:08:23.707Z,98406.50
2023-01-12T11:10:51.901Z,98405.00
2023-01-12T11:13:28.859Z,98410.38
2023-01-12T11:16:12.029Z,98402.66
2023-01-12T11:18:44.387Z,98396.75
2023-01-12T11:21:19.854Z,98389.59
2023-01-12T11:23:58.038Z,98381.81
2023-01-12T11:26:32.076Z,98378.75
2023-01-12T11:29:05.323Z,98378.91
2023-01-12T11:31:39.649Z,98368.59
2023-01-12T11:34:16.937Z,98377.81
2023-01-12T11:36:49.002Z,98378.66
2023-01-12T11:39:21.978Z,98373.25
2023-01-12T11:42:06.655Z,98367.97
2023-01-12T11:44:40.969Z,98368.84
2023-01-12T11:47:14.276Z,98362.69
2023-01-12T11:49:49.520Z,98373.00
2023-01-12T11:52:18.079Z,98369.13
2023-01-12T11:54:47.508Z,98372.44
2023-01-12T11:57:42.351Z,98369.03
2023-01-12T12:00:25.152Z,98369.25
2023-01-12T12:03:06.355Z,98364.84
2023-01-12T12:05:45.212Z,98360.13
2023-01-12T12:08:26.376Z,98356.97
2023-01-12T12:11:03.685Z,98357.59
2023-01-12T12:13:36.824Z,98345.22
2023-01-12T12:16:31.229Z,98361.41
2023-01-12T12:19:26.989Z,98354.16
2023-01-12T12:22:02.735Z,98346.47
2023-01-12T12:24:56.236Z,98336.63
2023-01-12T12:27:36.823Z,98347.50
2023-01-12T12:30:23.092Z,98342.47
2023-01-12T12:32:56.783Z,98334.06
2023-01-12T12:35:42.673Z,98333.44
2023-01-12T12:38:25.869Z,98330.59
2023-01-12T12:41:30.986Z,98323.00
2023-01-12T12:44:31.346Z,98335.16
2023-01-12T12:47:07.969Z,98329.56
2023-01-12T12:49:39.551Z,98323.59
2023-01-12T12:52:11.908Z,98329.78
2023-01-12T12:54:41.622Z,98326.34
2023-01-12T12:57:09.964Z,98320.09
2023-01-12T12:59:59.627Z,98318.91
2023-01-12T13:02:55.599Z,98320.88
2023-01-12T13:05:43.010Z,98324.06
2023-01-12T13:08:23.864Z,98324.81
2023-01-12T13:10:54.782Z,98326.91
2023-01-12T13:13:32.151Z,98319.94
2023-01-12T13:16:39.805Z,98319.19
2023-01-12T13:19:15.803Z,98319.72
2023-01-12T13:22:18.530Z,98323.72
2023-01-12T13:24:47.140Z,98312.44
2023-01-12T13:27:50.651Z,98327.69
2023-01-12T13:30:24.277Z,98317.25
2023-01-12T13:33:00.102Z,98316.47
2023-01-12T13:35:57.985Z,98307.69
2023-01-12T13:38:58.565Z,98311.41
2023-01-12T13:41:48.835Z,98314.63
2023-01-12T13:44:24.501Z,98321.75
2023-01-12T13:46:58.037Z,98321.13
2023-01-12T13:49:32.604Z,98324.47
2023-01-12T13:52:03.531Z,98323.50
2023-01-12T13:54:34.650Z,98323.25
2023-01-12T13:57:05.502Z,98321.00
2023-01-12T13:59:35.021Z,98312.19
2023-01-12T14:02:03.988Z,98312.28
2023-01-12T14:05:10.664Z,98313.88
2023-01-12T14:07:57.073Z,98311.31
2023-01-12T14:10:37.211Z,98305.91
2023-01-12T14:13:26.501Z,98310.41
2023-01-12T14:16:19.280Z,98293.06
2023-01-12T14:18:49.536Z,98293.28
2023-01-12T14:21:24.179Z,98289.78
2023-01-12T14:23:52.340Z,98284.06
2023-01-12T14:26:27.144Z,98283.84
2023-01-12T14:28:55.438Z,98289.66
2023-01-12T14:31:27.985Z,98287.00
2023-01-12T14:33:57.765Z,98293.16
2023-01-12T14:36:30.002Z,98296.19
2023-01-12T14:39:00.313Z,98296.47
2023-01-12T14:41:48.786Z,98288.28
2023-01-12T14:44:40.683Z,98280.22
2023-01-12T14:47:10.238Z,98274.84
2023-01-12T14:49:39.547Z,98266.41
2023-01-12T14:52:26.175Z,98270.41
2023-01-12T14:54:54.265Z,98268.50
2023-01-12T14:57:31.448Z,98271.78
2023-01-12T14:59:59.865Z,98275.06
2023-01-12T15:02:34.112Z,98282.59
2023-01-12T15:05:05.989Z,98274.88
2023-01-12T15:07:37.005Z,98278.50
2023-01-12T15:10:32.847Z,98282.34
2023-01-12T15:13:23.138Z,98283.75
2023-01-12T15:16:10.573Z,98291.38
2023-01-12T15:18:56.600Z,98291.50
2023-01-12T15:21:42.938Z,98282.00
2023-01-12T15:24:41.043Z,98286.59
2023-01-12T15:27:10.527Z,98294.81
2023-01-12T15:29:40.045Z,98283.72
2023-01-12T15:32:16.603Z,98290.72
2023-01-12T15:34:44.820Z,98301.44
2023-01-12T15:37:16.863Z,98293.34
2023-01-12T15:39:45.201Z,98287.84
2023-01-12T15:42:21.979Z,98298.69
2023-01-12T15:44:54.688Z,98292.03
2023-01-12T15:47:23.283Z,98296.00
2023-01-12T15:49:53.409Z,98282.59
2023-01-12T15:52:23.631Z,98293.25
2023-01-12T15:54:52.323Z,98274.34
2023-01-12T15:57:20.657Z,98283.50
2023-01-12T15:59:48.808Z,98289.41
2023-01-12T16:02:27.597Z,98289.41
2023-01-12T16:04:55.683Z,98294.13
2023-01-12T16:07:23.928Z,98296.41
2023-01-12T16:09:52.013Z,98282.69
2023-01-12T16:12:20.109Z,98297.03
2023-01-12T16:14:50.352Z,98292.91
2023-01-12T16:17:18.970Z,98301.91
2023-01-12T16:19:48.382Z,98292.91
2023-01-12T16:22:21.307Z,98283.63
2023-01-12T16:24:49.887Z,98284.97
2023-01-12T16:27:19.468Z,98285.31
2023-01-12T16:29:48.012Z,98286.06
2023-01-12T16:32:16.384Z,98283.16
2023-01-12T16:34:45.842Z,98287.88
2023-01-12T16:37:16.619Z,98282.66
2023-01-12T16:39:45.776Z,98281.91
2023-01-12T16:42:13.843Z,98287.56
2023-01-12T16:44:42.173Z,98292.00
2023-01-12T16:47:14.625Z,98288.13
2023-01-12T16:49:43.240Z,98283.28
2023-01-12T16:52:16.738Z,98279.44
2023-01-12T16:54:44.884Z,98282.22
2023-01-12T16:57:14.469Z,98285.38
2023-01-12T16:59:43.101Z,98287.66
2023-01-12T17:02:14.025Z,98285.47
2023-01-12T17:04:43.880Z,98273.28
2023-01-12T17:07:12.727Z,98281.56
2023-01-12T17:09:42.487Z,98272.59
2023-01-12T17:12:11.460Z,98274.84
2023-01-12T17:14:39.825Z,98275.75
2023-01-12T17:17:10.822Z,98274.50
2023-01-12T17:19:42.765Z,98274.00
2023-01-12T17:22:11.852Z,98270.59
2023-01-12T17:24:42.364Z,98267.75
2023-01-12T17:27:11.747Z,98266.38
2023-01-12T17:29:40.217Z,98265.34
2023-01-12T17:32:08.425Z,98261.81
2023-01-12T17:34:39.523Z,98259.38
2023-01-12T17:37:08.946Z,98263.81
2023-01-12T17:39:39.821Z,98254.25
2023-01-12T17:42:28.331Z,98265.44
2023-01-12T17:44:56.391Z,98257.31
2023-01-12T17:47:25.335Z,98260.44
2023-01-12T17:49:55.174Z,98256.59
2023-01-12T17:52:23.552Z,98253.94
2023-01-12T17:54:51.699Z,98249.84
2023-01-12T17:57:21.180Z,98251.03
2023-01-12T17:59:50.299Z,98250.19
2023-01-12T18:02:19.190Z,98254.91
2023-01-12T18:04:47.590Z,98250.91
2023-01-12T18:07:15.721Z,98248.66
2023-01-12T18:09:43.772Z,98243.97
2023-01-12T18:12:12.468Z,98243.03
2023-01-12T18:14:41.976Z,98234.72
2023-01-12T18:17:11.243Z,98234.56
2023-01-12T18:19:41.510Z,98233.28
2023-01-12T18:22:10.973Z,98232.13
2023-01-12T18:24:39.238Z,98237.34
2023-01-12T18:27:07.376Z,98237.97
2023-01-12T18:29:35.628Z,98234.69
2023-01-12T18:32:05.617Z,98233.28
2023-01-12T18:34:33.722Z,98231.50
2023-01-12T18:37:02.008Z,98226.94
2023-01-12T18:39:30.249Z,98228.81
2023-01-12T18:42:15.971Z,98225.88
2023-01-12T18:44:44.226Z,98219.88
2023-01-12T18:47:33.888Z,98222.31
2023-01-12T18:50:22.860Z,98222.00
2023-01-12T18:53:08.402Z,98218.00
2023-01-12T18:55:38.199Z,98223.09
2023-01-12T18:58:06.430Z,98217.56
2023-01-12T19:00:34.737Z,98214.91
2023-01-12T19:03:05.537Z,98218.88
2023-01-12T19:05:42.663Z,98207.59
2023-01-12T19:08:28.453Z,98205.00
2023-01-12T19:10:57.036Z,98202.22
2023-01-12T19:13:42.286Z,98205.84
2023-01-12T19:16:32.379Z,98208.16
2023-01-12T19:19:01.920Z,98198.00
2023-01-12T19:21:47.320Z,98200.97
2023-01-12T19:24:47.740Z,98197.06
2023-01-12T19:27:33.045Z,98190.69
2023-01-12T19:30:01.609Z,98197.53
2023-01-12T19:32:29.859Z,98198.00
2023-01-12T19:35:10.302Z,98203.31
2023-01-12T19:37:39.086Z,98209.25
2023-01-12T19:40:14.674Z,98200.72
2023-01-12T19:43:00.414Z,98201.00
2023-01-12T19:45:28.509Z,98201.78
2023-01-12T19:47:56.621Z,98200.13
2023-01-12T19:50:26.129Z,98201.19
2023-01-12T19:52:54.357Z,98199.06
2023-01-12T19:55:22.664Z,98197.53
2023-01-12T19:57:51.561Z,98199.97
2023-01-12T20:00:20.360Z,98201.78
2023-01-12T20:02:48.535Z,98196.94
2023-01-12T20:05:22.719Z,98200.09
2023-01-12T20:07:53.679Z,98196.44
2023-01-12T20:10:22.927Z,98198.56
2023-01-12T20:12:52.529Z,98194.50
2023-01-12T20:15:21.771Z,98194.94
2023-01-12T20:17:50.641Z,98192.59
2023-01-12T20:20:19.566Z,98189.69
2023-01-12T20:22:50.483Z,98195.16
2023-01-12T20:25:20.661Z,98188.16
2023-01-12T20:27:49.431Z,98191.66
2023-01-12T20:30:31.927Z,98193.44
2023-01-12T20:33:04.866Z,98188.88
2023-01-12T20:35:33.316Z,98186.69
2023-01-12T20:38:04.076Z,98183.72
2023-01-12T20:40:33.720Z,98185.28
2023-01-12T20:43:01.881Z,98178.69
2023-01-12T20:45:30.044Z,98180.56
2023-01-12T20:47:58.194Z,98185.75
2023-01-12T20:50:26.264Z,98182.25
2023-01-12T20:52:54.738Z,98181.22
2023-01-12T20:55:22.873Z,98176.66
2023-01-12T20:57:52.388Z,98177.47
2023-01-12T21:00:20.957Z,98183.53
2023-01-12T21:02:49.064Z,98176.97
2023-01-12T21:05:17.286Z,98180.19
2023-01-12T21:07:45.406Z,98173.88
2023-01-12T21:10:13.509Z,98172.72
2023-01-12T21:12:41.789Z,98173.16
2023-01-12T21:15:13.538Z,98178.19
2023-01-12T21:17:42.835Z,98176.53
2023-01-12T21:20:12.312Z,98170.00
2023-01-12T21:22:40.425Z,98175.75
2023-01-12T21:25:09.546Z,98175.88
2023-01-12T21:27:37.760Z,98187.66
2023-01-12T21:30:06.890Z,98186.31
2023-01-12T21:32:36.376Z,98184.47
2023-01-12T21:35:04.513Z,98182.66
2023-01-12T21:37:33.262Z,98174.41
2023-01-12T21:40:01.416Z,98181.31
2023-01-12T21:42:47.212Z,98184.81
2023-01-12T21:45:15.550Z,98180.41
2023-01-12T21:47:46.414Z,98177.66
2023-01-12T21:50:14.820Z,98177.81
2023-01-12T21:52:43.519Z,98173.84
2023-01-12T21:55:13.585Z,98176.13
2023-01-12T21:57:41.928Z,98170.03
2023-01-12T22:00:11.585Z,98166.56
2023-01-12T22:02:44.555Z,98161.06
2023-01-12T22:05:13.747Z,98170.19
2023-01-12T22:07:42.101Z,98168.66
2023-01-12T22:10:20.851Z,98168.22
2023-01-12T22:12:50.440Z,98166.38
2023-01-12T22:15:19.234Z,98163.34
2023-01-12T22:17:48.919Z,98159.38
2023-01-12T22:20:17.655Z,98160.44
2023-01-12T22:22:46.039Z,98162.13
2023-01-12T22:25:15.391Z,98149.63
2023-01-12T22:27:43.626Z,98149.16
2023-01-12T22:30:13.989Z,98151.28
2023-01-12T22:32:42.673Z,98147.94
2023-01-12T22:35:13.370Z,98138.19
2023-01-12T22:37:42.048Z,98138.78
2023-01-12T22:40:12.492Z,98144.13
2023-01-12T22:42:58.159Z,98134.97
2023-01-12T22:45:26.275Z,98135.44
2023-01-12T22:47:55.167Z,98135.91
2023-01-12T22:50:25.588Z,98134.97
2023-01-12T22:52:54.879Z,98129.03
2023-01-12T22:55:24.494Z,98129.31
2023-01-12T22:57:53.156Z,98116.25
2023-01-12T23:00:22.328Z,98124.47
2023-01-12T23:03:02.776Z,98127.34
2023-01-12T23:05:36.193Z,98121.56
2023-01-12T23:08:05.738Z,98115.47
2023-01-12T23:10:34.649Z,98117.91
2023-01-12T23:13:14.052Z,98114.72
2023-01-12T23:15:43.951Z,98110.28
2023-01-12T23:18:12.985Z,98125.03
2023-01-12T23:20:42.849Z,98128.09
2023-01-12T23:23:11.932Z,98118.19
2023-01-12T23:25:40.502Z,98120.28
2023-01-12T23:28:09.179Z,98124.69
2023-01-12T23:30:37.467Z,98124.13
2023-01-12T23:33:06.136Z,98122.25
2023-01-12T23:35:37.186Z,98124.25
2023-01-12T23:38:07.185Z,98116.16
2023-01-12T23:40:35.461Z,98121.81
2023-01-12T23:43:03.555Z,98125.63
2023-01-12T23:45:31.906Z,98127.75
2023-01-12T23:48:00.097Z,98117.75
2023-01-12T23:50:28.269Z,98121.09
2023-01-12T23:52:56.428Z,98110.44
2023-01-12T23:55:27.110Z,98116.53
2023-01-12T23:57:55.231Z,98112.44
